createdAt,value
2023-01-29T00:02:07.088Z,20.52
2023-01-29T00:04:34.131Z,20.05
2023-01-29T00:07:00.834Z,21.02
2023-01-29T00:09:28.650Z,17.88
2023-01-29T00:11:55.298Z,17.92
2023-01-29T00:14:22.091Z,17.27
2023-01-29T00:16:48.882Z,14.68
2023-01-29T00:19:15.632Z,13.98
2023-01-29T00:21:42.303Z,13.02
2023-01-29T00:24:09.165Z,11.00
2023-01-29T00:26:54.373Z,13.15
2023-01-29T00:29:35.142Z,11.98
2023-01-29T00:32:34.368Z,11.52
2023-01-29T00:39:27.752Z,10.75
2023-01-29T00:42:43.918Z,14.88
2023-01-29T00:45:17.457Z,14.13
2023-01-29T00:48:01.388Z,15.50
2023-01-29T00:50:37.018Z,18.52
2023-01-29T00:53:09.564Z,16.73
2023-01-29T00:55:44.214Z,15.18
2023-01-29T00:58:22.302Z,14.73
2023-01-29T01:00:49.576Z,15.40
2023-01-29T01:03:17.547Z,12.55
2023-01-29T01:05:51.565Z,14.40
2023-01-29T01:09:09.329Z,12.15
2023-01-29T01:11:44.371Z,16.58
2023-01-29T01:14:21.529Z,16.58
2023-01-29T01:16:51.031Z,15.55
2023-01-29T01:19:22.943Z,15.88
2023-01-29T01:21:54.748Z,16.33
2023-01-29T01:24:26.966Z,17.10
2023-01-29T01:27:12.767Z,16.73
2023-01-29T01:29:39.547Z,18.08
2023-01-29T01:32:06.376Z,14.88
2023-01-29T01:34:45.386Z,16.05
2023-01-29T01:37:16.077Z,15.02
2023-01-29T01:39:58.932Z,16.95
2023-01-29T01:42:32.787Z,16.02
2023-01-29T01:45:08.021Z,14.38
2023-01-29T01:47:47.751Z,14.88
2023-01-29T01:50:27.191Z,18.60
2023-01-29T01:52:58.967Z,13.48
2023-01-29T01:55:28.800Z,16.23
2023-01-29T01:58:03.352Z,16.60
2023-01-29T02:00:30.344Z,17.13
2023-01-29T02:03:15.654Z,15.38
2023-01-29T02:06:04.191Z,15.70
2023-01-29T02:09:13.109Z,15.75
2023-01-29T02:11:43.445Z,16.38
2023-01-29T02:14:13.361Z,17.00
2023-01-29T02:16:42.975Z,17.05
2023-01-29T02:35:05.416Z,18.90
2023-01-29T04:00:17.992Z,19.75
2023-01-29T04:11:17.181Z,21.98
2023-01-29T04:18:26.860Z,23.92
2023-01-29T04:21:38.746Z,23.02
2023-01-29T04:28:54.045Z,22.63
2023-01-29T04:36:20.907Z,22.98
2023-01-29T04:43:39.503Z,23.02
2023-01-29T04:46:06.132Z,23.25
2023-01-29T04:48:51.711Z,21.85
2023-01-29T04:51:42.948Z,20.13
2023-01-29T04:54:33.246Z,23.27
2023-01-29T04:57:19.134Z,22.27
2023-01-29T04:59:51.108Z,23.60
2023-01-29T05:02:20.588Z,20.48
2023-01-29T05:04:48.413Z,22.50
2023-01-29T05:07:17.271Z,21.73
2023-01-29T05:09:46.256Z,17.48
2023-01-29T05:12:15.789Z,22.42
2023-01-29T05:14:45.110Z,18.95
2023-01-29T05:17:18.122Z,20.92
2023-01-29T05:19:45.537Z,19.27
2023-01-29T05:22:14.974Z,23.85
2023-01-29T05:24:41.871Z,19.15
2023-01-29T05:27:36.798Z,21.48
2023-01-29T05:30:03.952Z,20.50
2023-01-29T05:32:30.600Z,17.10
2023-01-29T05:34:57.270Z,18.52
2023-01-29T05:37:24.078Z,20.88
2023-01-29T05:39:50.856Z,15.63
2023-01-29T05:42:17.547Z,11.73
2023-01-29T05:44:44.374Z,9.88
2023-01-29T05:47:11.111Z,9.45
2023-01-29T05:49:38.854Z,8.70
2023-01-29T05:52:05.721Z,11.00
2023-01-29T05:54:32.400Z,12.50
2023-01-29T05:56:59.210Z,11.57
2023-01-29T05:59:26.076Z,9.82
2023-01-29T06:01:52.823Z,8.05
2023-01-29T06:04:19.569Z,10.80
2023-01-29T06:06:46.269Z,10.43
2023-01-29T06:09:13.107Z,9.70
2023-01-29T06:11:40.277Z,8.20
2023-01-29T06:14:07.288Z,6.18
2023-01-29T06:16:34.041Z,7.65
2023-01-29T06:19:00.755Z,7.20
2023-01-29T06:21:27.433Z,8.27
2023-01-29T06:23:54.306Z,9.25
2023-01-29T06:26:21.010Z,7.57
2023-01-29T06:28:51.535Z,8.60
2023-01-29T06:31:37.787Z,8.25
2023-01-29T06:34:05.719Z,10.40
2023-01-29T06:36:32.389Z,10.20
2023-01-29T06:38:59.122Z,8.70
2023-01-29T06:41:25.923Z,12.15
2023-01-29T06:43:52.781Z,12.50
2023-01-29T06:46:19.475Z,16.20
2023-01-29T06:48:46.246Z,15.73
2023-01-29T06:51:12.899Z,16.45
2023-01-29T06:53:40.183Z,12.55
2023-01-29T06:56:07.770Z,14.48
2023-01-29T06:58:38.076Z,11.02
2023-01-29T07:01:07.472Z,9.98
2023-01-29T07:03:35.149Z,9.27
2023-01-29T07:06:02.022Z,7.18
2023-01-29T07:08:28.955Z,9.55
2023-01-29T07:11:00.407Z,9.00
2023-01-29T07:13:27.301Z,5.90
2023-01-29T07:15:56.274Z,10.48
2023-01-29T07:18:23.082Z,9.93
2023-01-29T07:20:50.203Z,8.50
2023-01-29T07:23:18.419Z,8.57
2023-01-29T07:25:45.363Z,9.85
2023-01-29T07:28:13.595Z,8.45
2023-01-29T07:30:40.694Z,7.38
2023-01-29T07:33:09.597Z,9.38
2023-01-29T07:35:38.401Z,7.03
2023-01-29T07:38:05.533Z,7.75
2023-01-29T07:40:32.208Z,8.35
2023-01-29T07:43:04.749Z,8.35
2023-01-29T07:45:35.337Z,10.30
2023-01-29T07:48:04.313Z,7.93
2023-01-29T07:50:33.215Z,11.02
2023-01-29T07:53:00.429Z,8.68
2023-01-29T07:55:27.641Z,8.10
2023-01-29T07:58:12.851Z,10.75
2023-01-29T08:00:39.875Z,13.45
2023-01-29T08:03:11.053Z,9.88
2023-01-29T08:05:37.959Z,9.13
2023-01-29T08:08:07.406Z,7.97
2023-01-29T08:10:36.119Z,9.73
2023-01-29T08:13:04.845Z,10.10
2023-01-29T08:15:32.652Z,12.45
2023-01-29T08:18:01.905Z,10.07
2023-01-29T08:20:28.814Z,9.10
2023-01-29T08:23:02.807Z,9.75
2023-01-29T08:25:29.931Z,11.10
2023-01-29T08:27:57.960Z,9.48
2023-01-29T08:30:30.220Z,9.80
2023-01-29T08:32:57.159Z,9.85
2023-01-29T08:35:24.706Z,10.73
2023-01-29T08:37:59.853Z,11.13
2023-01-29T08:40:28.595Z,11.07
2023-01-29T08:43:10.133Z,10.77
2023-01-29T08:45:42.032Z,9.98
2023-01-29T08:48:09.804Z,11.10
2023-01-29T08:50:36.892Z,9.80
2023-01-29T08:53:07.647Z,10.18
2023-01-29T08:55:45.856Z,10.05
2023-01-29T08:58:12.511Z,11.45
2023-01-29T09:00:39.498Z,8.65
2023-01-29T09:03:07.796Z,10.63
2023-01-29T09:05:38.593Z,8.73
2023-01-29T09:08:06.517Z,29.60
2023-01-29T09:10:33.587Z,12.20
2023-01-29T09:13:00.532Z,11.75
2023-01-29T09:15:27.339Z,15.50
2023-01-29T09:17:54.083Z,26.95
2023-01-29T09:20:20.972Z,19.75
2023-01-29T09:22:47.665Z,17.63
2023-01-29T09:25:15.169Z,18.60
2023-01-29T09:27:42.084Z,17.20
2023-01-29T09:30:09.409Z,15.93
2023-01-29T09:35:23.093Z,13.38
2023-01-29T09:37:50.870Z,11.20
2023-01-29T09:40:26.641Z,10.02
2023-01-29T09:43:04.441Z,9.15
2023-01-29T09:45:31.558Z,10.13
2023-01-29T09:48:02.080Z,9.57
2023-01-29T09:50:34.599Z,12.02
2023-01-29T09:53:25.671Z,12.98
2023-01-29T09:56:12.479Z,10.93
2023-01-29T09:58:42.127Z,14.23
2023-01-29T10:01:15.902Z,15.73
2023-01-29T10:04:14.212Z,11.25
2023-01-29T10:06:54.270Z,11.02
2023-01-29T10:09:37.489Z,8.80
2023-01-29T10:12:13.127Z,12.20
2023-01-29T10:14:57.192Z,8.13
2023-01-29T10:17:54.395Z,9.73
2023-01-29T10:20:33.646Z,10.23
2023-01-29T10:23:21.515Z,11.02
2023-01-29T10:25:48.968Z,8.55
2023-01-29T10:28:39.269Z,8.27
2023-01-29T10:31:15.290Z,12.30
2023-01-29T10:34:01.403Z,14.00
2023-01-29T10:36:45.242Z,9.77
2023-01-29T10:39:18.713Z,13.68
2023-01-29T10:41:57.304Z,9.85
2023-01-29T10:44:39.534Z,9.38
2023-01-29T10:47:34.339Z,7.32
2023-01-29T10:50:33.305Z,10.98
2023-01-29T10:53:31.042Z,11.32
2023-01-29T10:56:22.659Z,9.32
2023-01-29T10:59:06.963Z,10.45
2023-01-29T11:01:33.652Z,8.45
2023-01-29T11:04:04.090Z,10.50
2023-01-29T11:06:33.283Z,10.63
2023-01-29T11:09:09.735Z,8.65
2023-01-29T11:12:00.824Z,9.32
2023-01-29T11:14:33.539Z,9.00
2023-01-29T11:17:00.318Z,10.77
2023-01-29T11:19:48.149Z,11.00
2023-01-29T11:22:15.965Z,10.45
2023-01-29T11:24:43.085Z,9.25
2023-01-29T11:27:29.526Z,9.20
2023-01-29T11:29:56.450Z,10.43
2023-01-29T11:32:28.604Z,9.75
2023-01-29T11:35:11.955Z,9.45
2023-01-29T11:37:41.363Z,9.95
2023-01-29T11:40:20.567Z,8.70
2023-01-29T11:42:47.972Z,10.10
2023-01-29T11:45:27.671Z,10.80
2023-01-29T11:47:56.458Z,10.65
2023-01-29T11:50:29.294Z,10.98
2023-01-29T11:52:56.269Z,9.80
2023-01-29T11:55:25.622Z,9.35
2023-01-29T11:58:06.522Z,11.43
2023-01-29T12:00:35.715Z,9.50
2023-01-29T12:03:15.257Z,9.38
2023-01-29T12:05:55.000Z,10.65
2023-01-29T12:08:24.174Z,10.27
2023-01-29T12:10:50.999Z,10.25
2023-01-29T12:13:26.626Z,14.90
2023-01-29T12:16:21.499Z,9.52
2023-01-29T12:19:23.252Z,8.88
2023-01-29T12:21:59.791Z,9.73
2023-01-29T12:24:52.848Z,13.45
2023-01-29T12:27:54.622Z,11.00
2023-01-29T12:30:50.416Z,13.85
2023-01-29T12:33:37.006Z,11.35
2023-01-29T12:36:26.344Z,17.25
2023-01-29T12:38:54.570Z,9.98
2023-01-29T12:41:47.816Z,11.35
2023-01-29T12:44:22.999Z,10.43
2023-01-29T12:46:56.204Z,16.98
2023-01-29T12:49:28.021Z,11.18
2023-01-29T12:52:15.074Z,6.85
2023-01-29T12:54:50.278Z,13.18
2023-01-29T12:57:25.653Z,9.45
2023-01-29T13:00:15.019Z,8.38
2023-01-29T13:02:54.292Z,9.70
2023-01-29T13:05:27.155Z,11.90
2023-01-29T13:08:02.937Z,13.63
2023-01-29T13:10:34.964Z,10.98
2023-01-29T13:13:27.550Z,12.20
2023-01-29T13:15:56.535Z,11.23
2023-01-29T13:18:40.110Z,12.52
2023-01-29T13:21:11.984Z,10.95
2023-01-29T13:23:43.735Z,10.95
2023-01-29T13:26:13.834Z,12.43
2023-01-29T13:28:44.506Z,11.68
2023-01-29T13:31:33.422Z,10.68
2023-01-29T13:34:09.022Z,9.00
2023-01-29T13:36:41.296Z,11.18
2023-01-29T13:39:15.743Z,11.93
2023-01-29T13:41:43.539Z,14.80
2023-01-29T13:44:38.854Z,11.80
2023-01-29T13:47:11.478Z,13.60
2023-01-29T13:49:46.448Z,12.65
2023-01-29T13:52:34.095Z,13.93
2023-01-29T13:55:31.133Z,11.43
2023-01-29T13:58:02.514Z,14.07
2023-01-29T14:00:35.207Z,13.93
2023-01-29T14:03:01.848Z,15.93
2023-01-29T14:05:31.745Z,14.57
2023-01-29T14:08:03.480Z,15.15
2023-01-29T14:10:32.988Z,15.27
2023-01-29T14:13:18.012Z,17.35
2023-01-29T14:16:04.693Z,13.30
2023-01-29T14:18:33.585Z,14.25
2023-01-29T14:21:20.687Z,15.88
2023-01-29T14:23:50.693Z,16.85
2023-01-29T14:26:31.200Z,15.88
2023-01-29T14:28:57.961Z,16.27
2023-01-29T14:31:48.064Z,24.17
2023-01-29T14:34:25.481Z,17.42
2023-01-29T14:36:59.025Z,15.90
2023-01-29T14:39:34.246Z,19.80
2023-01-29T14:42:05.933Z,16.45
2023-01-29T14:44:44.750Z,14.10
2023-01-29T14:47:21.177Z,13.63
2023-01-29T14:49:56.264Z,14.10
2023-01-29T14:52:42.954Z,23.70
2023-01-29T14:55:23.304Z,27.55
2023-01-29T14:57:51.806Z,20.52
2023-01-29T15:00:29.422Z,17.75
2023-01-29T15:03:01.933Z,20.92
2023-01-29T15:05:37.432Z,19.83
2023-01-29T15:08:21.321Z,19.77
2023-01-29T15:11:14.223Z,14.30
2023-01-29T15:16:35.140Z,13.77
2023-01-29T15:19:18.048Z,16.55
2023-01-29T15:22:03.339Z,17.45
2023-01-29T15:24:30.002Z,18.50
2023-01-29T15:26:56.983Z,18.88
2023-01-29T15:29:27.218Z,18.83
2023-01-29T15:31:55.874Z,15.88
2023-01-29T15:34:23.088Z,23.92
2023-01-29T15:36:50.784Z,20.65
2023-01-29T15:39:23.552Z,20.45
2023-01-29T15:42:03.808Z,19.08
2023-01-29T15:44:30.617Z,17.27
2023-01-29T15:46:59.934Z,18.67
2023-01-29T15:49:37.698Z,21.40
2023-01-29T15:52:08.278Z,23.70
2023-01-29T15:54:35.753Z,21.13
2023-01-29T15:57:03.590Z,18.58
2023-01-29T15:59:35.129Z,19.75
2023-01-29T16:02:35.899Z,22.67
2023-01-29T16:05:04.795Z,24.27
2023-01-29T16:07:31.892Z,37.97
2023-01-29T16:09:59.576Z,54.55
2023-01-29T16:12:26.762Z,54.40
2023-01-29T16:14:53.728Z,43.03
2023-01-29T16:17:35.006Z,39.28
2023-01-29T16:20:05.320Z,27.15
2023-01-29T16:22:37.493Z,27.30
2023-01-29T16:25:12.124Z,26.30
2023-01-29T16:27:38.890Z,29.30
2023-01-29T16:30:07.451Z,35.97
2023-01-29T16:32:34.136Z,67.95
2023-01-29T16:35:01.146Z,49.00
2023-01-29T16:37:36.254Z,44.00
2023-01-29T16:40:24.773Z,55.38
2023-01-29T16:43:16.650Z,81.85
2023-01-29T16:45:58.647Z,51.87
2023-01-29T16:48:27.866Z,86.38
2023-01-29T16:51:13.718Z,43.55
2023-01-29T16:53:40.679Z,29.65
2023-01-29T16:56:08.589Z,27.73
2023-01-29T16:58:35.665Z,25.45
2023-01-29T17:01:07.625Z,22.17
2023-01-29T17:03:35.775Z,26.10
2023-01-29T17:06:12.866Z,24.88
2023-01-29T17:08:42.651Z,24.02
2023-01-29T17:11:10.983Z,23.65
2023-01-29T17:13:42.551Z,27.15
2023-01-29T17:16:35.236Z,25.33
2023-01-29T17:21:30.240Z,22.67
2023-01-29T17:23:56.921Z,23.40
2023-01-29T17:26:24.744Z,22.75
2023-01-29T17:28:53.628Z,53.80
2023-01-29T17:31:20.394Z,37.55
2023-01-29T17:33:47.766Z,31.55
2023-01-29T17:36:16.782Z,24.20
2023-01-29T17:38:43.703Z,21.27
2023-01-29T17:41:21.183Z,24.15
2023-01-29T17:43:47.976Z,23.92
2023-01-29T17:46:16.748Z,25.83
2023-01-29T17:48:44.250Z,23.00
2023-01-29T17:51:16.155Z,27.77
2023-01-29T17:53:46.237Z,27.10
2023-01-29T17:56:30.526Z,34.22
2023-01-29T17:58:57.258Z,33.58
2023-01-29T18:01:28.649Z,30.27
2023-01-29T18:03:55.406Z,31.87
2023-01-29T18:06:29.279Z,31.58
2023-01-29T18:08:58.684Z,30.45
2023-01-29T18:11:25.621Z,30.17
2023-01-29T18:13:52.363Z,27.88
2023-01-29T18:16:21.756Z,31.58
2023-01-29T18:18:49.701Z,23.77
2023-01-29T18:21:16.374Z,26.95
2023-01-29T18:23:43.140Z,31.08
2023-01-29T18:26:16.180Z,24.60
2023-01-29T18:28:43.671Z,26.35
2023-01-29T18:31:12.934Z,22.23
2023-01-29T18:33:40.346Z,26.90
2023-01-29T18:36:07.786Z,34.25
2023-01-29T18:38:34.464Z,60.35
2023-01-29T18:41:10.607Z,48.97
2023-01-29T18:43:38.719Z,32.03
2023-01-29T18:46:06.406Z,38.00
2023-01-29T18:48:33.794Z,33.00
2023-01-29T18:51:00.663Z,32.80
2023-01-29T18:53:27.455Z,45.35
2023-01-29T18:56:05.394Z,33.22
2023-01-29T18:58:36.310Z,30.83
2023-01-29T19:01:10.107Z,33.80
2023-01-29T19:03:37.421Z,40.15
2023-01-29T19:06:06.257Z,38.28
2023-01-29T19:08:33.379Z,42.35
2023-01-29T19:11:02.394Z,40.15
2023-01-29T19:13:30.671Z,40.90
2023-01-29T19:15:57.815Z,38.30
2023-01-29T19:18:27.822Z,32.70
2023-01-29T19:20:54.927Z,33.58
2023-01-29T19:23:22.033Z,34.47
2023-01-29T19:25:48.719Z,39.00
2023-01-29T19:28:15.547Z,33.70
2023-01-29T19:30:42.311Z,30.92
2023-01-29T19:33:10.467Z,31.30
2023-01-29T19:35:37.151Z,23.95
2023-01-29T19:38:04.452Z,29.80
2023-01-29T19:40:31.123Z,30.08
2023-01-29T19:42:58.390Z,29.80
2023-01-29T19:45:49.018Z,34.67
2023-01-29T19:48:14.454Z,30.38
2023-01-29T19:50:41.594Z,32.50
2023-01-29T19:53:08.286Z,26.55
2023-01-29T19:55:34.959Z,30.60
2023-01-29T19:58:03.474Z,29.30
2023-01-29T20:00:30.281Z,29.60
2023-01-29T20:02:56.958Z,32.17
2023-01-29T20:05:24.050Z,29.48
2023-01-29T20:07:50.750Z,30.85
2023-01-29T20:10:18.164Z,24.67
2023-01-29T20:12:46.015Z,25.85
2023-01-29T20:15:14.223Z,27.58
2023-01-29T20:17:41.247Z,23.85
2023-01-29T20:20:08.919Z,25.08
2023-01-29T20:22:35.788Z,27.58
2023-01-29T20:25:02.518Z,26.08
2023-01-29T20:27:29.168Z,27.35
2023-01-29T20:29:55.869Z,25.98
2023-01-29T20:32:22.681Z,29.13
2023-01-29T20:34:51.981Z,23.75
2023-01-29T20:37:19.504Z,27.30
2023-01-29T20:39:46.654Z,32.83
2023-01-29T20:42:13.719Z,27.25
2023-01-29T20:44:40.475Z,25.65
2023-01-29T20:47:07.205Z,25.45
2023-01-29T20:49:34.002Z,30.45
2023-01-29T20:52:00.690Z,30.33
2023-01-29T20:54:29.318Z,31.23
2023-01-29T20:56:56.085Z,31.70
2023-01-29T20:59:23.231Z,36.20
2023-01-29T21:01:50.039Z,33.20
2023-01-29T21:04:16.814Z,34.97
2023-01-29T21:06:43.511Z,32.17
2023-01-29T21:09:10.183Z,33.28
2023-01-29T21:11:36.861Z,30.60
2023-01-29T21:14:03.611Z,33.53
2023-01-29T21:16:30.641Z,31.92
2023-01-29T21:18:58.161Z,30.55
2023-01-29T21:21:26.494Z,31.85
2023-01-29T21:23:53.747Z,28.38
2023-01-29T21:26:20.568Z,32.45
2023-01-29T21:28:47.340Z,29.90
2023-01-29T21:31:14.966Z,29.30
2023-01-29T21:33:41.934Z,29.30
2023-01-29T21:36:10.124Z,29.52
2023-01-29T21:38:37.401Z,29.75
2023-01-29T21:41:09.634Z,32.50
2023-01-29T21:43:39.029Z,29.52
2023-01-29T21:46:13.739Z,35.90
2023-01-29T21:48:40.867Z,36.00
2023-01-29T21:51:07.961Z,33.35
2023-01-29T21:53:36.648Z,29.83
2023-01-29T21:56:04.754Z,32.67
2023-01-29T21:58:32.109Z,30.95
2023-01-29T22:01:35.625Z,26.83
2023-01-29T22:03:47.196Z,26.55
2023-01-29T22:06:14.327Z,30.42
2023-01-29T22:08:41.204Z,27.35
2023-01-29T22:11:08.206Z,27.38
2023-01-29T22:13:35.269Z,29.33
2023-01-29T22:16:01.917Z,27.65
2023-01-29T22:18:28.710Z,27.80
2023-01-29T22:20:56.503Z,25.42
2023-01-29T22:23:23.770Z,27.00
2023-01-29T22:25:50.446Z,27.17
2023-01-29T22:28:18.684Z,27.35
2023-01-29T22:30:45.864Z,31.17
2023-01-29T22:33:12.672Z,29.05
2023-01-29T22:35:39.459Z,26.45
2023-01-29T22:38:06.511Z,29.05
2023-01-29T22:40:33.214Z,32.90
2023-01-29T22:42:59.871Z,29.27
2023-01-29T22:45:27.271Z,27.73
2023-01-29T22:47:53.960Z,26.15
2023-01-29T22:50:20.852Z,31.17
2023-01-29T22:52:53.697Z,29.10
2023-01-29T22:55:20.711Z,28.35
2023-01-29T22:57:49.550Z,21.65
2023-01-29T23:00:17.020Z,24.10
2023-01-29T23:02:45.907Z,26.27
2023-01-29T23:05:12.647Z,24.17
2023-01-29T23:07:39.349Z,22.05
2023-01-29T23:10:07.226Z,23.63
2023-01-29T23:12:34.100Z,23.98
2023-01-29T23:15:00.765Z,25.33
2023-01-29T23:17:27.447Z,27.27
2023-01-29T23:19:54.115Z,25.00
2023-01-29T23:22:20.830Z,22.13
2023-01-29T23:24:47.499Z,23.52
2023-01-29T23:27:16.870Z,27.70
2023-01-29T23:29:45.709Z,25.05
2023-01-29T23:32:17.730Z,28.00
2023-01-29T23:34:44.616Z,25.23
2023-01-29T23:37:11.557Z,22.25
2023-01-29T23:39:38.308Z,28.15
2023-01-29T23:42:05.211Z,26.20
2023-01-29T23:44:31.885Z,24.65
2023-01-29T23:46:58.607Z,30.27
2023-01-29T23:49:25.399Z,29.48
2023-01-29T23:51:52.112Z,33.67
2023-01-29T23:54:18.866Z,27.88
2023-01-29T23:56:45.989Z,34.35
2023-01-29T23:59:13.003Z,28.25
